Startline

Sheep River Road Race

Okotoks, AB - September 14, 2019

EventPlaceTime Race #NameCityDivision Place/GenderPlace/Division
10K 1/74 0:36:34 52 MARSH, Dan Okotoks, AB M2029 1/42 1/4
10K 2/74 0:38:52 53 MARSH, Ben Okotoks, AB M2029 2/42 2/4
10K 3/74 0:40:11 41 JOBSON, Sam Okotoks, AB M-U20 3/42 1/3
10K 4/74 0:40:16 65 NEUFELD, Jeremy Okotoks, AB M4049 4/42 1/11
10K 5/74 0:41:35 86 VAN HARTEN, James Okotoks, AB M2029 5/42 3/4
10K 6/74 0:42:19 42 KIMLER, Steven Okotoks, AB M3039 6/42 1/6
10K 7/74 0:43:12 73 RUSTON, Chad Okotoks, AB M4049 7/42 2/11
10K 8/74 0:43:16 23 EKELUND, Travis Okotoks, AB M3039 8/42 2/6
10K 9/74 0:43:42 31 GILL, Alec Okotoks, AB M4049 9/42 3/11
10K 10/74 0:44:29 30 GAUDET, Wayne Exshaw, AB M60+ 10/42 1/10
10K 11/74 0:44:37 70 PETIT, Gillian Okotoks, AB F3039 1/32 1/10
10K 12/74 0:44:49 17 CORTVRIENDT, Anthony Okotoks, AB M2029 11/42 4/4
10K 13/74 0:46:02 89 WEBER, Stephen Calgary, AB M5059 12/42 1/8
10K 14/74 0:46:13 32 GILLIES, Dwayne Okotoks, AB M5059 13/42 2/8
10K 15/74 0:46:29 49 LIM, Su-Chong Calgary, AB M60+ 14/42 2/10
10K 16/74 0:46:47 33 GRAHAM, James Okotoks, AB M4049 15/42 4/11
10K 17/74 0:47:34 72 PROCTOR, Dan Okotoks, AB M4049 16/42 5/11
10K 18/74 0:47:40 90 WEIGEL, Michelle Okotoks, AB F3039 2/32 2/10
10K 19/74 0:47:47 48 LEE, Don Calgary, AB M60+ 17/42 3/10
10K 20/74 0:48:51 71 PETIT, Nicholas Okotoks, AB M3039 18/42 3/6
10K 21/74 0:49:06 66 NEVINS-LAYTE, Taylor Okotoks, AB F-U20 3/32 1/2
10K 22/74 0:49:17 56 MCKENZIE, Karen Okotoks, AB F4049 4/32 1/8
10K 23/74 0:49:40 29 GAJA, Alan High River, AB M5059 19/42 3/8
10K 24/74 0:50:40 47 KROON, Paul Okotoks, AB M5059 20/42 4/8
10K 25/74 0:51:03 43 KINLOCH, Natasha Calgary, AB F3039 5/32 3/10
10K 26/74 0:51:49 76 SHARP, Andy Calgary, AB M4049 21/42 6/11
10K 27/74 0:52:07 8 BELL, Mike Hamilton, ON M60+ 22/42 4/10
10K 28/74 0:52:25 55 MCCANCE, Meagan Okotoks, AB F3039 6/32 4/10
10K 29/74 0:53:13 7 BARTEL, Travis Okotoks, AB M3039 23/42 4/6
10K 30/74 0:53:15 82 TOMLJANOVIC, Antonia Calgary, AB F2029 7/32 1/3
10K 31/74 0:53:39 37 HELLIO, Edouard Hillion, FR M5059 24/42 5/8
10K 32/74 0:53:48 36 HEINRICKS, Tina Okotoks, AB F3039 8/32 5/10
10K 33/74 0:53:56 34 HADLEY, Ellen Calgary, AB F4049 9/32 2/8
10K 34/74 0:54:38 61 MOORE, Donna Airdrie, AB F5059 10/32 1/6
10K 35/74 0:54:57 81 TARRANT, Ted Okotoks, AB M60+ 25/42 5/10
10K 36/74 0:55:09 9 BENNETT, Doug High River, AB M5059 26/42 6/8
10K 37/74 0:55:10 16 CORSALE, Emily Calgary, AB F3039 11/32 6/10
10K 38/74 0:56:07 19 DENTANDT, David Okotoks, AB M4049 27/42 7/11
10K 39/74 0:56:12 21 DOWELL, Liam Okotoks, AB M-U20 28/42 2/3
10K 40/74 0:56:21 25 FOLTINEK, Melissa Calgary, AB F3039 12/32 7/10
10K 41/74 0:56:37 24 FATIMEHIN, Toks Calgary, AB M5059 29/42 7/8
10K 42/74 0:56:40 58 MIDDLETON, Tracy Turner Valley, AB F5059 13/32 2/6
10K 43/74 0:56:42 79 SQUIRE, Sandra Okotoks, AB F60+ 14/32 1/3
10K 44/74 0:57:30 64 MUIR, Ethan Calgary, AB M3039 30/42 5/6
10K 45/74 0:57:31 63 MUIR, Heather Calgary, AB F2029 15/32 2/3
10K 46/74 0:57:32 96 RISERBATO, Antonina Calgary, AB F4049 16/32 3/8
10K 47/74 0:58:02 18 DE COENE, Cadence Calgary, AB F-U20 17/32 2/2
10K 48/74 0:59:34 51 MACDONALD, David Okotoks, AB M4049 31/42 8/11
10K 49/74 0:59:47 28 FREDERICK, Byron Calgary, AB M60+ 32/42 6/10
10K 50/74 1:01:04 27 FOURNIER, Bev Okotoks, AB F60+ 18/32 2/3
10K 51/74 1:01:08 3 ANDERSON, Bryony Okotoks, AB F2029 19/32 3/3
10K 52/74 1:01:18 94 MORTON, Jennifer Okotoks, AB F4049 20/32 4/8
10K 53/74 1:01:19 95 MORTON, Andrew Okotoks, AB M4049 33/42 9/11
10K 54/74 1:01:26 5 ARCHER, James Dewinton, AB M4049 34/42 10/11
10K 55/74 1:01:45 57 MCMASTER, Theresia Okotoks, AB F5059 21/32 3/6
10K 56/74 1:02:09 6 BAGNALL, Patrick Calgary, AB M60+ 35/42 7/10
10K 57/74 1:02:24 62 MORRIS, Steve Okotoks, AB M5059 36/42 8/8
10K 58/74 1:02:24 11 BUSTIN, Eric Okotoks, AB M3039 37/42 6/6
10K 59/74 1:02:48 12 BYAM, Flayne Okotoks, AB M60+ 38/42 8/10
10K 60/74 1:03:11 74 RYAN, Beverly Okotoks, AB F4049 22/32 5/8
10K 61/74 1:03:35 88 WATTS, Dawn Okotoks, AB F4049 23/32 6/8
10K 62/74 1:04:26 92 WESTON, Ann High River, AB F60+ 24/32 3/3
10K 63/74 1:05:51 87 VOROBEI, Olga Okotoks, AB F4049 25/32 7/8
10K 64/74 1:06:32 85 URBAN, Bernardina Okotoks, AB F5059 26/32 4/6
10K 65/74 1:07:58 59 MIDDLETON, Walker Turner Valley, AB M-U20 39/42 3/3
10K 66/74 1:08:53 38 HESLOP, Melissa Airdrie, AB F3039 27/32 8/10
10K 67/74 1:09:03 60 MONTEITH, Jennifer Calgary, AB F4049 28/32 8/8
10K 68/74 1:09:15 80 STATHAM, Glen Okotoks, AB M60+ 40/42 9/10
10K 69/74 1:09:18 22 DUNBAR, Ray Calgary, AB M60+ 41/42 10/10
10K 70/74 1:09:53 68 PATERSON, Brian Okotoks, AB M4049 42/42 11/11
10K 71/74 1:10:05 69 PATERSON, Laura Okotoks, AB F3039 29/32 9/10
10K 72/74 1:11:00 50 LLOYD, Leslie Okotoks, AB F5059 30/32 5/6
10K 73/74 1:12:59 46 KRAMER, Sharon Calgary, AB F5059 31/32 6/6
10K 74/74 1:13:20 13 CALHOUN, Christina Okotoks, AB F3039 32/32 10/10